sensor_id;sensor_type;location;lat;lon;timestamp;P1;durP1;ratioP1;P2;durP2;ratioP2
2119;SDS011;1066;52.540;13.420;2023-11-21T00:00:14;18.57;;;11.63;;
2119;SDS011;1066;52.540;13.420;2023-11-21T00:02:39;15.00;;;11.73;;
2119;SDS011;1066;52.540;13.420;2023-11-21T00:05:08;14.73;;;10.87;;
2119;SDS011;1066;52.540;13.420;2023-11-21T00:07:34;22.17;;;12.63;;
2119;SDS011;1066;52.540;13.420;2023-11-21T00:10:00;19.93;;;11.10;;
2119;SDS011;1066;52.540;13.420;2023-11-21T00:12:25;16.67;;;12.23;;
2119;SDS011;1066;52.540;13.420;2023-11-21T00:14:50;16.33;;;11.63;;
2119;SDS011;1066;52.540;13.420;2023-11-21T00:17:15;24.73;;;12.13;;
2119;SDS011;1066;52.540;13.420;2023-11-21T00:19:40;27.57;;;15.13;;
2119;SDS011;1066;52.540;13.420;2023-11-21T00:22:07;19.07;;;12.60;;
2119;SDS011;1066;52.540;13.420;2023-11-21T00:24:33;25.23;;;14.07;;
2119;SDS011;1066;52.540;13.420;2023-11-21T00:26:59;17.43;;;13.97;;
2119;SDS011;1066;52.540;13.420;2023-11-21T00:29:24;25.67;;;15.27;;
2119;SDS011;1066;52.540;13.420;2023-11-21T00:31:49;22.43;;;14.77;;
2119;SDS011;1066;52.540;13.420;2023-11-21T00:34:14;22.40;;;14.77;;
2119;SDS011;1066;52.540;13.420;2023-11-21T00:36:40;29.23;;;14.67;;
2119;SDS011;1066;52.540;13.420;2023-11-21T00:39:05;28.80;;;15.27;;
2119;SDS011;1066;52.540;13.420;2023-11-21T00:41:31;27.97;;;16.80;;
2119;SDS011;1066;52.540;13.420;2023-11-21T00:43:56;29.60;;;16.80;;
2119;SDS011;1066;52.540;13.420;2023-11-21T00:46:21;32.50;;;16.17;;
2119;SDS011;1066;52.540;13.420;2023-11-21T00:48:49;35.50;;;17.77;;
2119;SDS011;1066;52.540;13.420;2023-11-21T00:51:14;30.90;;;16.50;;
2119;SDS011;1066;52.540;13.420;2023-11-21T00:53:39;33.33;;;18.97;;
2119;SDS011;1066;52.540;13.420;2023-11-21T00:56:05;47.77;;;20.70;;
2119;SDS011;1066;52.540;13.420;2023-11-21T00:58:30;32.37;;;17.30;;
2119;SDS011;1066;52.540;13.420;2023-11-21T01:00:55;40.20;;;17.83;;
2119;SDS011;1066;52.540;13.420;2023-11-21T01:03:21;40.60;;;18.83;;
2119;SDS011;1066;52.540;13.420;2023-11-21T01:05:46;48.37;;;20.13;;
2119;SDS011;1066;52.540;13.420;2023-11-21T01:08:11;47.33;;;23.10;;
2119;SDS011;1066;52.540;13.420;2023-11-21T01:10:37;34.97;;;22.53;;
2119;SDS011;1066;52.540;13.420;2023-11-21T01:13:02;41.40;;;22.40;;
2119;SDS011;1066;52.540;13.420;2023-11-21T01:15:30;71.07;;;26.93;;
2119;SDS011;1066;52.540;13.420;2023-11-21T01:17:55;51.33;;;23.80;;
2119;SDS011;1066;52.540;13.420;2023-11-21T01:20:20;51.20;;;25.67;;
2119;SDS011;1066;52.540;13.420;2023-11-21T01:22:47;39.47;;;23.50;;
2119;SDS011;1066;52.540;13.420;2023-11-21T01:25:14;56.30;;;27.13;;
2119;SDS011;1066;52.540;13.420;2023-11-21T01:27:39;38.20;;;24.20;;
2119;SDS011;1066;52.540;13.420;2023-11-21T01:30:04;46.17;;;23.93;;
2119;SDS011;1066;52.540;13.420;2023-11-21T01:32:32;59.00;;;25.43;;
2119;SDS011;1066;52.540;13.420;2023-11-21T01:34:57;49.97;;;23.17;;
2119;SDS011;1066;52.540;13.420;2023-11-21T01:37:22;39.17;;;21.63;;
2119;SDS011;1066;52.540;13.420;2023-11-21T01:39:48;43.00;;;19.97;;
2119;SDS011;1066;52.540;13.420;2023-11-21T01:42:13;42.77;;;19.77;;
2119;SDS011;1066;52.540;13.420;2023-11-21T01:44:38;37.27;;;18.40;;
2119;SDS011;1066;52.540;13.420;2023-11-21T01:47:05;47.00;;;18.33;;
2119;SDS011;1066;52.540;13.420;2023-11-21T01:49:34;33.70;;;18.27;;
2119;SDS011;1066;52.540;13.420;2023-11-21T01:51:59;26.07;;;16.07;;
2119;SDS011;1066;52.540;13.420;2023-11-21T01:54:25;32.13;;;18.23;;
2119;SDS011;1066;52.540;13.420;2023-11-21T01:56:50;36.60;;;23.90;;
2119;SDS011;1066;52.540;13.420;2023-11-21T01:59:18;34.83;;;16.80;;
2119;SDS011;1066;52.540;13.420;2023-11-21T02:01:43;29.40;;;17.10;;
2119;SDS011;1066;52.540;13.420;2023-11-21T02:04:09;20.40;;;12.90;;
2119;SDS011;1066;52.540;13.420;2023-11-21T02:06:34;28.97;;;15.20;;
2119;SDS011;1066;52.540;13.420;2023-11-21T02:09:00;23.03;;;12.10;;
2119;SDS011;1066;52.540;13.420;2023-11-21T02:11:25;19.30;;;10.77;;
2119;SDS011;1066;52.540;13.420;2023-11-21T02:13:52;22.10;;;10.37;;
2119;SDS011;1066;52.540;13.420;2023-11-21T02:16:19;18.57;;;12.20;;
2119;SDS011;1066;52.540;13.420;2023-11-21T02:18:45;17.57;;;11.30;;
2119;SDS011;1066;52.540;13.420;2023-11-21T02:21:12;14.37;;;9.77;;
2119;SDS011;1066;52.540;13.420;2023-11-21T02:23:37;14.20;;;9.17;;
2119;SDS011;1066;52.540;13.420;2023-11-21T02:26:07;11.47;;;9.17;;
2119;SDS011;1066;52.540;13.420;2023-11-21T02:28:32;11.50;;;9.80;;
2119;SDS011;1066;52.540;13.420;2023-11-21T02:30:58;14.67;;;9.40;;
2119;SDS011;1066;52.540;13.420;2023-11-21T02:33:24;11.53;;;8.20;;
2119;SDS011;1066;52.540;13.420;2023-11-21T02:35:49;13.17;;;9.47;;
2119;SDS011;1066;52.540;13.420;2023-11-21T02:38:14;15.90;;;9.80;;
2119;SDS011;1066;52.540;13.420;2023-11-21T02:40:41;12.60;;;8.33;;
2119;SDS011;1066;52.540;13.420;2023-11-21T02:43:06;9.93;;;8.93;;
2119;SDS011;1066;52.540;13.420;2023-11-21T02:45:32;15.83;;;10.30;;
2119;SDS011;1066;52.540;13.420;2023-11-21T02:47:57;15.27;;;9.90;;
2119;SDS011;1066;52.540;13.420;2023-11-21T02:50:22;11.53;;;8.60;;
2119;SDS011;1066;52.540;13.420;2023-11-21T02:52:48;12.43;;;9.27;;
2119;SDS011;1066;52.540;13.420;2023-11-21T02:55:13;12.93;;;9.10;;
2119;SDS011;1066;52.540;13.420;2023-11-21T02:57:38;11.17;;;9.33;;
2119;SDS011;1066;52.540;13.420;2023-11-21T03:00:03;11.70;;;9.30;;
2119;SDS011;1066;52.540;13.420;2023-11-21T03:02:32;12.80;;;9.50;;
2119;SDS011;1066;52.540;13.420;2023-11-21T03:04:57;14.97;;;11.13;;
2119;SDS011;1066;52.540;13.420;2023-11-21T03:07:22;10.93;;;8.90;;
2119;SDS011;1066;52.540;13.420;2023-11-21T03:09:48;12.63;;;9.77;;
2119;SDS011;1066;52.540;13.420;2023-11-21T03:12:13;10.93;;;9.67;;
2119;SDS011;1066;52.540;13.420;2023-11-21T03:14:41;13.33;;;10.10;;
2119;SDS011;1066;52.540;13.420;2023-11-21T03:17:06;11.97;;;9.97;;
2119;SDS011;1066;52.540;13.420;2023-11-21T03:19:32;10.80;;;9.10;;
2119;SDS011;1066;52.540;13.420;2023-11-21T03:21:57;10.03;;;8.60;;
2119;SDS011;1066;52.540;13.420;2023-11-21T03:24:22;9.90;;;8.90;;
2119;SDS011;1066;52.540;13.420;2023-11-21T03:26:48;10.17;;;9.10;;
2119;SDS011;1066;52.540;13.420;2023-11-21T03:29:13;10.00;;;9.10;;
2119;SDS011;1066;52.540;13.420;2023-11-21T03:31:39;8.80;;;8.00;;
2119;SDS011;1066;52.540;13.420;2023-11-21T03:34:04;8.20;;;7.40;;
2119;SDS011;1066;52.540;13.420;2023-11-21T03:36:29;9.47;;;7.53;;
2119;SDS011;1066;52.540;13.420;2023-11-21T03:38:55;14.27;;;8.23;;
2119;SDS011;1066;52.540;13.420;2023-11-21T03:41:20;8.90;;;8.17;;
2119;SDS011;1066;52.540;13.420;2023-11-21T03:43:46;9.97;;;8.57;;
2119;SDS011;1066;52.540;13.420;2023-11-21T03:46:11;9.93;;;8.90;;
2119;SDS011;1066;52.540;13.420;2023-11-21T03:48:37;9.37;;;8.47;;
2119;SDS011;1066;52.540;13.420;2023-11-21T03:51:02;11.03;;;8.90;;
2119;SDS011;1066;52.540;13.420;2023-11-21T03:53:28;9.00;;;7.93;;
2119;SDS011;1066;52.540;13.420;2023-11-21T03:55:53;10.90;;;9.33;;
2119;SDS011;1066;52.540;13.420;2023-11-21T03:58:18;8.53;;;7.63;;
2119;SDS011;1066;52.540;13.420;2023-11-21T04:00:43;9.87;;;8.50;;
2119;SDS011;1066;52.540;13.420;2023-11-21T04:03:08;10.50;;;9.30;;
2119;SDS011;1066;52.540;13.420;2023-11-21T04:05:34;9.63;;;8.00;;
2119;SDS011;1066;52.540;13.420;2023-11-21T04:07:59;9.20;;;8.10;;
2119;SDS011;1066;52.540;13.420;2023-11-21T04:10:24;9.80;;;8.90;;
2119;SDS011;1066;52.540;13.420;2023-11-21T04:12:49;11.20;;;8.10;;
2119;SDS011;1066;52.540;13.420;2023-11-21T04:15:15;9.20;;;8.30;;
2119;SDS011;1066;52.540;13.420;2023-11-21T04:17:40;9.53;;;8.50;;
2119;SDS011;1066;52.540;13.420;2023-11-21T04:20:06;10.10;;;8.17;;
2119;SDS011;1066;52.540;13.420;2023-11-21T04:22:34;9.23;;;8.33;;
2119;SDS011;1066;52.540;13.420;2023-11-21T04:24:59;9.87;;;8.60;;
2119;SDS011;1066;52.540;13.420;2023-11-21T04:27:24;9.23;;;8.00;;
2119;SDS011;1066;52.540;13.420;2023-11-21T04:29:49;9.23;;;8.30;;
2119;SDS011;1066;52.540;13.420;2023-11-21T04:32:15;8.13;;;7.10;;
2119;SDS011;1066;52.540;13.420;2023-11-21T04:34:41;8.03;;;7.23;;
2119;SDS011;1066;52.540;13.420;2023-11-21T04:37:06;10.17;;;8.37;;
2119;SDS011;1066;52.540;13.420;2023-11-21T04:39:31;9.17;;;7.80;;
2119;SDS011;1066;52.540;13.420;2023-11-21T04:41:56;11.10;;;7.80;;
2119;SDS011;1066;52.540;13.420;2023-11-21T04:44:22;7.80;;;6.87;;
2119;SDS011;1066;52.540;13.420;2023-11-21T04:46:47;8.57;;;7.40;;
2119;SDS011;1066;52.540;13.420;2023-11-21T04:49:12;8.17;;;7.37;;
2119;SDS011;1066;52.540;13.420;2023-11-21T04:51:37;9.10;;;8.00;;
2119;SDS011;1066;52.540;13.420;2023-11-21T04:54:02;11.07;;;7.60;;
2119;SDS011;1066;52.540;13.420;2023-11-21T04:56:28;7.80;;;7.00;;
2119;SDS011;1066;52.540;13.420;2023-11-21T04:58:54;7.37;;;6.67;;
2119;SDS011;1066;52.540;13.420;2023-11-21T05:01:19;9.37;;;7.30;;
2119;SDS011;1066;52.540;13.420;2023-11-21T05:03:45;7.03;;;6.33;;
2119;SDS011;1066;52.540;13.420;2023-11-21T05:06:11;7.43;;;6.67;;
2119;SDS011;1066;52.540;13.420;2023-11-21T05:08:37;7.50;;;6.77;;
2119;SDS011;1066;52.540;13.420;2023-11-21T05:11:02;6.43;;;5.83;;
2119;SDS011;1066;52.540;13.420;2023-11-21T05:13:28;7.07;;;6.37;;
2119;SDS011;1066;52.540;13.420;2023-11-21T05:15:54;7.90;;;6.70;;
2119;SDS011;1066;52.540;13.420;2023-11-21T05:18:19;9.33;;;7.07;;
2119;SDS011;1066;52.540;13.420;2023-11-21T05:20:44;10.00;;;8.13;;
2119;SDS011;1066;52.540;13.420;2023-11-21T05:23:10;7.60;;;6.30;;
2119;SDS011;1066;52.540;13.420;2023-11-21T05:25:35;7.80;;;7.00;;
2119;SDS011;1066;52.540;13.420;2023-11-21T05:28:01;7.77;;;6.43;;
2119;SDS011;1066;52.540;13.420;2023-11-21T05:30:27;7.60;;;6.80;;
2119;SDS011;1066;52.540;13.420;2023-11-21T05:32:53;8.40;;;7.30;;
2119;SDS011;1066;52.540;13.420;2023-11-21T05:35:18;8.90;;;7.10;;
2119;SDS011;1066;52.540;13.420;2023-11-21T05:37:44;7.97;;;7.17;;
2119;SDS011;1066;52.540;13.420;2023-11-21T05:40:10;7.87;;;6.93;;
2119;SDS011;1066;52.540;13.420;2023-11-21T05:42:35;8.60;;;7.50;;
2119;SDS011;1066;52.540;13.420;2023-11-21T05:45:01;9.27;;;7.53;;
2119;SDS011;1066;52.540;13.420;2023-11-21T05:47:40;8.83;;;8.03;;
2119;SDS011;1066;52.540;13.420;2023-11-21T05:50:05;9.40;;;7.60;;
2119;SDS011;1066;52.540;13.420;2023-11-21T05:52:31;7.63;;;6.93;;
2119;SDS011;1066;52.540;13.420;2023-11-21T05:54:57;8.07;;;7.27;;
2119;SDS011;1066;52.540;13.420;2023-11-21T05:57:22;7.17;;;6.40;;
2119;SDS011;1066;52.540;13.420;2023-11-21T05:59:48;7.10;;;6.40;;
2119;SDS011;1066;52.540;13.420;2023-11-21T06:02:13;7.20;;;5.93;;
2119;SDS011;1066;52.540;13.420;2023-11-21T06:04:38;7.27;;;6.53;;
2119;SDS011;1066;52.540;13.420;2023-11-21T06:07:03;8.67;;;6.67;;
2119;SDS011;1066;52.540;13.420;2023-11-21T06:09:29;8.30;;;6.97;;
2119;SDS011;1066;52.540;13.420;2023-11-21T06:11:54;6.93;;;6.10;;
2119;SDS011;1066;52.540;13.420;2023-11-21T06:14:19;6.83;;;6.10;;
2119;SDS011;1066;52.540;13.420;2023-11-21T06:16:46;6.17;;;5.50;;
2119;SDS011;1066;52.540;13.420;2023-11-21T06:19:12;6.60;;;5.77;;
2119;SDS011;1066;52.540;13.420;2023-11-21T06:21:37;6.77;;;5.03;;
2119;SDS011;1066;52.540;13.420;2023-11-21T06:24:03;6.13;;;5.53;;
2119;SDS011;1066;52.540;13.420;2023-11-21T06:26:28;8.13;;;6.80;;
2119;SDS011;1066;52.540;13.420;2023-11-21T06:28:54;6.53;;;5.93;;
2119;SDS011;1066;52.540;13.420;2023-11-21T06:31:19;5.23;;;4.73;;
2119;SDS011;1066;52.540;13.420;2023-11-21T06:33:46;6.57;;;5.97;;
2119;SDS011;1066;52.540;13.420;2023-11-21T06:36:12;6.10;;;5.10;;
2119;SDS011;1066;52.540;13.420;2023-11-21T06:38:37;6.67;;;5.57;;
2119;SDS011;1066;52.540;13.420;2023-11-21T06:41:02;5.47;;;4.93;;
2119;SDS011;1066;52.540;13.420;2023-11-21T06:43:29;6.20;;;5.60;;
2119;SDS011;1066;52.540;13.420;2023-11-21T06:45:56;6.37;;;5.77;;
2119;SDS011;1066;52.540;13.420;2023-11-21T06:48:21;5.93;;;5.33;;
2119;SDS011;1066;52.540;13.420;2023-11-21T06:50:46;5.47;;;4.60;;
2119;SDS011;1066;52.540;13.420;2023-11-21T06:53:11;4.90;;;4.40;;
2119;SDS011;1066;52.540;13.420;2023-11-21T06:55:38;6.60;;;4.97;;
2119;SDS011;1066;52.540;13.420;2023-11-21T06:58:03;6.90;;;5.53;;
2119;SDS011;1066;52.540;13.420;2023-11-21T07:00:30;5.70;;;5.20;;
2119;SDS011;1066;52.540;13.420;2023-11-21T07:02:55;7.80;;;5.27;;
2119;SDS011;1066;52.540;13.420;2023-11-21T07:05:20;5.77;;;5.20;;
2119;SDS011;1066;52.540;13.420;2023-11-21T07:07:46;5.60;;;4.87;;
2119;SDS011;1066;52.540;13.420;2023-11-21T07:10:12;7.93;;;4.50;;
2119;SDS011;1066;52.540;13.420;2023-11-21T07:12:37;5.63;;;5.03;;
2119;SDS011;1066;52.540;13.420;2023-11-21T07:15:03;4.70;;;4.20;;
2119;SDS011;1066;52.540;13.420;2023-11-21T07:17:30;7.33;;;5.60;;
2119;SDS011;1066;52.540;13.420;2023-11-21T07:19:56;5.97;;;5.37;;
2119;SDS011;1066;52.540;13.420;2023-11-21T07:22:21;4.53;;;3.93;;
2119;SDS011;1066;52.540;13.420;2023-11-21T07:24:49;6.63;;;5.60;;
2119;SDS011;1066;52.540;13.420;2023-11-21T07:27:17;5.20;;;4.70;;
2119;SDS011;1066;52.540;13.420;2023-11-21T07:29:43;5.60;;;5.00;;
2119;SDS011;1066;52.540;13.420;2023-11-21T07:32:08;6.30;;;5.03;;
2119;SDS011;1066;52.540;13.420;2023-11-21T07:34:38;6.07;;;5.47;;
2119;SDS011;1066;52.540;13.420;2023-11-21T07:37:03;4.97;;;4.47;;
2119;SDS011;1066;52.540;13.420;2023-11-21T07:39:28;5.53;;;4.47;;
2119;SDS011;1066;52.540;13.420;2023-11-21T07:41:54;5.47;;;4.43;;
2119;SDS011;1066;52.540;13.420;2023-11-21T07:44:19;5.23;;;4.73;;
2119;SDS011;1066;52.540;13.420;2023-11-21T07:46:45;6.23;;;5.17;;
2119;SDS011;1066;52.540;13.420;2023-11-21T07:49:11;6.17;;;5.13;;
2119;SDS011;1066;52.540;13.420;2023-11-21T07:51:36;4.97;;;4.47;;
2119;SDS011;1066;52.540;13.420;2023-11-21T07:54:01;6.27;;;4.83;;
2119;SDS011;1066;52.540;13.420;2023-11-21T07:56:27;5.47;;;4.97;;
2119;SDS011;1066;52.540;13.420;2023-11-21T07:58:52;6.47;;;4.93;;
2119;SDS011;1066;52.540;13.420;2023-11-21T08:01:17;5.27;;;4.77;;
2119;SDS011;1066;52.540;13.420;2023-11-21T08:03:42;5.33;;;4.80;;
2119;SDS011;1066;52.540;13.420;2023-11-21T08:06:09;5.03;;;4.53;;
2119;SDS011;1066;52.540;13.420;2023-11-21T08:08:34;5.77;;;4.70;;
2119;SDS011;1066;52.540;13.420;2023-11-21T08:10:59;5.30;;;4.50;;
2119;SDS011;1066;52.540;13.420;2023-11-21T08:13:27;4.47;;;4.07;;
2119;SDS011;1066;52.540;13.420;2023-11-21T08:15:56;5.97;;;5.37;;
2119;SDS011;1066;52.540;13.420;2023-11-21T08:18:21;6.67;;;6.00;;
2119;SDS011;1066;52.540;13.420;2023-11-21T08:20:47;5.20;;;4.53;;
2119;SDS011;1066;52.540;13.420;2023-11-21T08:23:13;5.23;;;4.73;;
2119;SDS011;1066;52.540;13.420;2023-11-21T08:25:40;5.67;;;5.07;;
2119;SDS011;1066;52.540;13.420;2023-11-21T08:28:07;7.20;;;5.43;;
2119;SDS011;1066;52.540;13.420;2023-11-21T08:30:32;6.70;;;4.90;;
2119;SDS011;1066;52.540;13.420;2023-11-21T08:32:57;6.40;;;5.60;;
2119;SDS011;1066;52.540;13.420;2023-11-21T08:35:23;6.80;;;5.17;;
2119;SDS011;1066;52.540;13.420;2023-11-21T08:37:50;6.03;;;4.77;;
2119;SDS011;1066;52.540;13.420;2023-11-21T08:40:16;8.47;;;5.63;;
2119;SDS011;1066;52.540;13.420;2023-11-21T08:42:42;8.07;;;5.60;;
2119;SDS011;1066;52.540;13.420;2023-11-21T08:45:07;6.27;;;5.63;;
2119;SDS011;1066;52.540;13.420;2023-11-21T08:47:34;8.40;;;6.27;;
2119;SDS011;1066;52.540;13.420;2023-11-21T08:49:59;9.07;;;6.67;;
2119;SDS011;1066;52.540;13.420;2023-11-21T08:52:24;9.80;;;6.10;;
2119;SDS011;1066;52.540;13.420;2023-11-21T08:54:49;10.20;;;6.37;;
2119;SDS011;1066;52.540;13.420;2023-11-21T08:57:21;7.90;;;5.53;;
2119;SDS011;1066;52.540;13.420;2023-11-21T08:59:46;7.77;;;5.50;;
2119;SDS011;1066;52.540;13.420;2023-11-21T09:02:11;5.60;;;5.10;;
2119;SDS011;1066;52.540;13.420;2023-11-21T09:04:36;6.40;;;4.60;;
2119;SDS011;1066;52.540;13.420;2023-11-21T09:07:03;8.33;;;6.47;;
2119;SDS011;1066;52.540;13.420;2023-11-21T09:09:28;6.80;;;5.50;;
2119;SDS011;1066;52.540;13.420;2023-11-21T09:11:54;10.67;;;6.30;;
2119;SDS011;1066;52.540;13.420;2023-11-21T09:14:20;10.23;;;6.03;;
2119;SDS011;1066;52.540;13.420;2023-11-21T09:16:45;9.30;;;6.10;;
2119;SDS011;1066;52.540;13.420;2023-11-21T09:19:10;8.60;;;6.10;;
2119;SDS011;1066;52.540;13.420;2023-11-21T09:21:36;8.33;;;6.40;;
2119;SDS011;1066;52.540;13.420;2023-11-21T09:24:02;7.33;;;5.80;;
2119;SDS011;1066;52.540;13.420;2023-11-21T09:26:28;11.93;;;6.47;;
2119;SDS011;1066;52.540;13.420;2023-11-21T09:28:55;9.93;;;7.47;;
2119;SDS011;1066;52.540;13.420;2023-11-21T09:31:21;11.57;;;7.17;;
2119;SDS011;1066;52.540;13.420;2023-11-21T09:33:47;6.70;;;5.80;;
2119;SDS011;1066;52.540;13.420;2023-11-21T09:36:13;13.33;;;6.87;;
2119;SDS011;1066;52.540;13.420;2023-11-21T09:38:41;11.43;;;7.30;;
2119;SDS011;1066;52.540;13.420;2023-11-21T09:41:08;10.90;;;6.60;;
2119;SDS011;1066;52.540;13.420;2023-11-21T09:43:37;10.93;;;6.37;;
2119;SDS011;1066;52.540;13.420;2023-11-21T09:46:03;10.17;;;6.10;;
2119;SDS011;1066;52.540;13.420;2023-11-21T09:48:30;8.33;;;5.80;;
2119;SDS011;1066;52.540;13.420;2023-11-21T09:50:57;6.20;;;4.50;;
2119;SDS011;1066;52.540;13.420;2023-11-21T09:53:22;4.97;;;3.80;;
2119;SDS011;1066;52.540;13.420;2023-11-21T09:55:50;6.57;;;4.40;;
2119;SDS011;1066;52.540;13.420;2023-11-21T09:58:16;5.90;;;3.90;;
2119;SDS011;1066;52.540;13.420;2023-11-21T10:00:42;5.97;;;4.50;;
2119;SDS011;1066;52.540;13.420;2023-11-21T10:03:07;4.00;;;3.60;;
2119;SDS011;1066;52.540;13.420;2023-11-21T10:05:33;5.60;;;4.10;;
2119;SDS011;1066;52.540;13.420;2023-11-21T10:07:59;4.60;;;4.10;;
2119;SDS011;1066;52.540;13.420;2023-11-21T10:10:25;5.77;;;4.67;;
2119;SDS011;1066;52.540;13.420;2023-11-21T10:12:50;4.90;;;3.70;;
2119;SDS011;1066;52.540;13.420;2023-11-21T10:15:23;6.57;;;3.70;;
2119;SDS011;1066;52.540;13.420;2023-11-21T10:17:52;5.20;;;4.30;;
2119;SDS011;1066;52.540;13.420;2023-11-21T10:20:18;5.63;;;4.13;;
2119;SDS011;1066;52.540;13.420;2023-11-21T10:22:44;6.20;;;3.90;;
2119;SDS011;1066;52.540;13.420;2023-11-21T10:25:09;4.10;;;3.70;;
2119;SDS011;1066;52.540;13.420;2023-11-21T10:27:36;5.47;;;3.70;;
2119;SDS011;1066;52.540;13.420;2023-11-21T10:30:04;5.27;;;3.50;;
2119;SDS011;1066;52.540;13.420;2023-11-21T10:32:29;4.07;;;3.37;;
2119;SDS011;1066;52.540;13.420;2023-11-21T10:35:00;4.33;;;3.93;;
2119;SDS011;1066;52.540;13.420;2023-11-21T10:37:27;3.37;;;3.07;;
2119;SDS011;1066;52.540;13.420;2023-11-21T10:39:57;5.00;;;3.03;;
2119;SDS011;1066;52.540;13.420;2023-11-21T10:42:22;4.10;;;3.70;;
2119;SDS011;1066;52.540;13.420;2023-11-21T10:44:49;2.97;;;2.67;;
2119;SDS011;1066;52.540;13.420;2023-11-21T10:47:14;3.40;;;2.57;;
2119;SDS011;1066;52.540;13.420;2023-11-21T10:49:40;4.40;;;4.10;;
2119;SDS011;1066;52.540;13.420;2023-11-21T10:52:05;3.40;;;3.10;;
2119;SDS011;1066;52.540;13.420;2023-11-21T10:54:31;4.20;;;3.17;;
2119;SDS011;1066;52.540;13.420;2023-11-21T10:56:56;4.83;;;4.27;;
2119;SDS011;1066;52.540;13.420;2023-11-21T10:59:22;3.80;;;3.30;;
2119;SDS011;1066;52.540;13.420;2023-11-21T11:01:50;3.10;;;2.80;;
2119;SDS011;1066;52.540;13.420;2023-11-21T11:04:17;4.67;;;3.63;;
2119;SDS011;1066;52.540;13.420;2023-11-21T11:06:43;4.80;;;4.40;;
2119;SDS011;1066;52.540;13.420;2023-11-21T11:09:10;6.30;;;3.10;;
2119;SDS011;1066;52.540;13.420;2023-11-21T11:11:38;3.57;;;2.90;;
2119;SDS011;1066;52.540;13.420;2023-11-21T11:14:05;4.70;;;3.10;;
2119;SDS011;1066;52.540;13.420;2023-11-21T11:16:31;4.30;;;2.87;;
2119;SDS011;1066;52.540;13.420;2023-11-21T11:18:57;4.17;;;3.30;;
2119;SDS011;1066;52.540;13.420;2023-11-21T11:21:45;3.40;;;2.90;;
2119;SDS011;1066;52.540;13.420;2023-11-21T11:38:58;4.20;;;3.77;;
2119;SDS011;1066;52.540;13.420;2023-11-21T11:41:24;4.17;;;3.77;;
2119;SDS011;1066;52.540;13.420;2023-11-21T11:43:49;3.83;;;3.30;;
2119;SDS011;1066;52.540;13.420;2023-11-21T11:46:15;3.37;;;3.00;;
2119;SDS011;1066;52.540;13.420;2023-11-21T11:48:40;5.80;;;4.97;;
2119;SDS011;1066;52.540;13.420;2023-11-21T11:53:40;4.40;;;3.50;;
2119;SDS011;1066;52.540;13.420;2023-11-21T11:56:22;4.50;;;4.10;;
2119;SDS011;1066;52.540;13.420;2023-11-21T11:58:48;5.07;;;3.73;;
2119;SDS011;1066;52.540;13.420;2023-11-21T12:01:15;4.10;;;3.70;;
2119;SDS011;1066;52.540;13.420;2023-11-21T12:03:41;5.07;;;4.53;;
2119;SDS011;1066;52.540;13.420;2023-11-21T12:06:06;4.53;;;4.10;;
2119;SDS011;1066;52.540;13.420;2023-11-21T12:08:32;5.23;;;3.77;;
2119;SDS011;1066;52.540;13.420;2023-11-21T12:10:58;5.30;;;3.93;;
2119;SDS011;1066;52.540;13.420;2023-11-21T12:13:23;5.77;;;4.20;;
2119;SDS011;1066;52.540;13.420;2023-11-21T12:15:49;5.53;;;4.53;;
2119;SDS011;1066;52.540;13.420;2023-11-21T12:18:14;6.50;;;5.63;;
2119;SDS011;1066;52.540;13.420;2023-11-21T12:20:40;5.20;;;4.70;;
2119;SDS011;1066;52.540;13.420;2023-11-21T12:23:06;4.90;;;4.17;;
2119;SDS011;1066;52.540;13.420;2023-11-21T12:25:34;5.03;;;4.53;;
2119;SDS011;1066;52.540;13.420;2023-11-21T12:28:01;5.43;;;4.13;;
2119;SDS011;1066;52.540;13.420;2023-11-21T12:30:30;5.80;;;4.60;;
2119;SDS011;1066;52.540;13.420;2023-11-21T12:32:56;4.87;;;4.30;;
2119;SDS011;1066;52.540;13.420;2023-11-21T12:35:23;5.10;;;4.60;;
2119;SDS011;1066;52.540;13.420;2023-11-21T12:37:49;6.13;;;3.97;;
2119;SDS011;1066;52.540;13.420;2023-11-21T12:40:16;6.43;;;4.13;;
2119;SDS011;1066;52.540;13.420;2023-11-21T12:42:42;5.43;;;4.23;;
2119;SDS011;1066;52.540;13.420;2023-11-21T12:45:08;3.60;;;3.10;;
2119;SDS011;1066;52.540;13.420;2023-11-21T12:47:36;4.87;;;3.40;;
2119;SDS011;1066;52.540;13.420;2023-11-21T12:50:02;4.50;;;4.10;;
2119;SDS011;1066;52.540;13.420;2023-11-21T12:52:28;4.80;;;4.10;;
2119;SDS011;1066;52.540;13.420;2023-11-21T12:54:53;5.43;;;4.43;;
2119;SDS011;1066;52.540;13.420;2023-11-21T12:57:19;4.47;;;3.70;;
2119;SDS011;1066;52.540;13.420;2023-11-21T12:59:45;5.33;;;4.10;;
2119;SDS011;1066;52.540;13.420;2023-11-21T13:02:12;7.03;;;4.73;;
2119;SDS011;1066;52.540;13.420;2023-11-21T13:04:39;4.20;;;3.80;;
2119;SDS011;1066;52.540;13.420;2023-11-21T13:07:04;4.60;;;3.97;;
2119;SDS011;1066;52.540;13.420;2023-11-21T13:09:39;5.73;;;4.60;;
2119;SDS011;1066;52.540;13.420;2023-11-21T13:12:04;4.33;;;3.67;;
2119;SDS011;1066;52.540;13.420;2023-11-21T13:14:32;4.17;;;3.77;;
2119;SDS011;1066;52.540;13.420;2023-11-21T13:16:58;4.70;;;3.93;;
2119;SDS011;1066;52.540;13.420;2023-11-21T13:19:24;4.17;;;3.77;;
2119;SDS011;1066;52.540;13.420;2023-11-21T13:21:49;5.00;;;4.50;;
2119;SDS011;1066;52.540;13.420;2023-11-21T13:24:14;4.47;;;4.03;;
2119;SDS011;1066;52.540;13.420;2023-11-21T13:26:40;5.10;;;4.43;;
2119;SDS011;1066;52.540;13.420;2023-11-21T13:29:05;5.00;;;3.90;;
2119;SDS011;1066;52.540;13.420;2023-11-21T13:31:30;4.63;;;4.23;;
2119;SDS011;1066;52.540;13.420;2023-11-21T13:33:57;5.00;;;4.23;;
2119;SDS011;1066;52.540;13.420;2023-11-21T13:36:29;5.77;;;5.23;;
2119;SDS011;1066;52.540;13.420;2023-11-21T13:38:57;6.60;;;4.90;;
2119;SDS011;1066;52.540;13.420;2023-11-21T13:41:23;5.80;;;4.90;;
2119;SDS011;1066;52.540;13.420;2023-11-21T13:43:55;6.17;;;5.57;;
2119;SDS011;1066;52.540;13.420;2023-11-21T13:46:28;6.33;;;5.73;;
2119;SDS011;1066;52.540;13.420;2023-11-21T13:48:53;5.30;;;4.80;;
2119;SDS011;1066;52.540;13.420;2023-11-21T13:51:21;5.23;;;4.73;;
2119;SDS011;1066;52.540;13.420;2023-11-21T13:53:54;6.00;;;5.30;;
2119;SDS011;1066;52.540;13.420;2023-11-21T13:56:20;10.40;;;5.90;;
2119;SDS011;1066;52.540;13.420;2023-11-21T13:58:49;5.57;;;5.17;;
2119;SDS011;1066;52.540;13.420;2023-11-21T14:01:17;8.37;;;6.90;;
2119;SDS011;1066;52.540;13.420;2023-11-21T14:03:55;6.60;;;5.87;;
2119;SDS011;1066;52.540;13.420;2023-11-21T14:06:27;7.03;;;5.87;;
2119;SDS011;1066;52.540;13.420;2023-11-21T14:08:59;7.13;;;5.90;;
2119;SDS011;1066;52.540;13.420;2023-11-21T14:11:27;7.00;;;6.30;;
2119;SDS011;1066;52.540;13.420;2023-11-21T14:13:53;8.53;;;6.50;;
2119;SDS011;1066;52.540;13.420;2023-11-21T14:16:18;8.20;;;6.90;;
2119;SDS011;1066;52.540;13.420;2023-11-21T14:18:44;8.00;;;7.20;;
2119;SDS011;1066;52.540;13.420;2023-11-21T14:21:26;10.50;;;8.80;;
2119;SDS011;1066;52.540;13.420;2023-11-21T14:23:52;10.87;;;9.67;;
2119;SDS011;1066;52.540;13.420;2023-11-21T14:26:19;10.63;;;9.50;;
2119;SDS011;1066;52.540;13.420;2023-11-21T14:28:45;11.70;;;10.17;;
2119;SDS011;1066;52.540;13.420;2023-11-21T14:31:13;11.63;;;9.97;;
2119;SDS011;1066;52.540;13.420;2023-11-21T14:33:40;10.97;;;9.53;;
2119;SDS011;1066;52.540;13.420;2023-11-21T14:36:06;22.60;;;17.73;;
2119;SDS011;1066;52.540;13.420;2023-11-21T14:38:34;16.23;;;12.63;;
2119;SDS011;1066;52.540;13.420;2023-11-21T14:41:00;11.40;;;10.30;;
2119;SDS011;1066;52.540;13.420;2023-11-21T14:43:25;11.87;;;10.70;;
2119;SDS011;1066;52.540;13.420;2023-11-21T14:45:54;12.30;;;10.50;;
2119;SDS011;1066;52.540;13.420;2023-11-21T14:48:21;13.37;;;12.00;;
2119;SDS011;1066;52.540;13.420;2023-11-21T14:51:04;13.10;;;11.70;;
2119;SDS011;1066;52.540;13.420;2023-11-21T14:53:30;13.03;;;11.73;;
2119;SDS011;1066;52.540;13.420;2023-11-21T14:56:13;13.83;;;11.70;;
2119;SDS011;1066;52.540;13.420;2023-11-21T14:58:46;11.57;;;10.47;;
2119;SDS011;1066;52.540;13.420;2023-11-21T15:01:11;13.17;;;11.87;;
2119;SDS011;1066;52.540;13.420;2023-11-21T15:03:38;15.07;;;12.40;;